Terminal Aerodrome Forecast
Issued by NWS

Home | Current Version | Previous Version | Graphics & Text | Print | Product List | Glossary On
Versions: 1 2 3 4 5 6 7 8 9 10 11 12 13 14 15 16
444
FTUS45 KGGW 182321
TAFSDY
TAF
KSDY 182321Z 1900/1924 06008KT P6SM BKN080
     FM190300 07005KT P6SM BKN040
     FM190600 06005KT P6SM BKN025
     FM191200 07007KT P6SM BKN030
     FM191800 11006KT P6SM BKN050=

USA.gov is the U.S. government's official web portal to all federal, state and local government web resources and services.